Semnan, Iran

12:54 AM IRDT on July 11, 2014 (GMT +0430)
Semnan (OIIS) Elev 3658 ft | 35.39 °N, 53.67 °E | Change Station

Current weather conditions updated 24 minutes ago

Clear
Clear
91 °F
Feels Like 91 °F
N
18
Wind Variable Wind from ENE

Today is forecast to be Cooler than yesterday.

Today
High -- | Low -- °F
--% Chance of Precip.
Yesterday
High -- | Low -- °F
Precip. -- in
5:49 AM 8:13 PM
Waxing Gibbous, 96% visible
Pressure 29.77 in
Visibility -9999.0 miles
Clouds
Dew Point 41 °F
Humidity 17%
Rainfall 0.00 in
Snow Depth Not available.
UV Not available.
Pollen Not available.
Air Quality Not available.
Flu Activity Not available.
METAR OIIS 102000Z 06016KT CAVOK 33/05 Q1008

More Conditions Fewer Conditions

Pressure 29.77 in
Visibility -9999.0 miles
Clouds
Dew Point 41 °F
Humidity 17%
Rainfall 0.00 in
Snow Depth Not available.
UV Not available.
Pollen Not available.
Air Quality Not available.
Flu Activity Not available.
METAR OIIS 102000Z 06016KT CAVOK 33/05 Q1008

More Conditions Fewer Conditions

10-Day Weather Forecast

Almanac

Astronomy

Jul. 11, 2014 Rise Set
Actual Time 5:49 AM IRDT 8:13 PM IRDT
Civil Twilight 5:20 AM IRDT 8:43 PM IRDT
Nautical Twilight 4:43 AM IRDT 9:19 PM IRDT
Astronomical Twilight 4:03 AM IRDT 9:59 PM IRDT
Moon 7:04 PM IRDT (7/11) 4:34 AM IRDT (7/11)
Length of Visible Light 15h 23m
Length of Day
14h 24m
Tomorrow will be 0m 59s shorter.
Waxing Gibbous, 96% of the Moon is Illuminated
Jul 10
Waxing Gibbous
Jul 12
Full
Jul 18
Last Quarter
Jul 26
New
Aug 3
First Quarter

Yesterday's Extremes

Country Highs Country Lows

Community

WunderPhotos

Upload Photos

1,732,257 photos uploaded!

Nearby

Snow Depth

Not available.

Earthquake Activity

City Distance Mag. Time & Date
No recent earthquake activity has been reported nearby.
Minimum magnitude displayed is 2.5.

Coastal Water Temperatures

Place Temperature
No Stations Reporting

Nearby Weather Stations

There are no personal weather stations in this area.